sensor_id;sensor_type;location;lat;lon;timestamp;P1;durP1;ratioP1;P2;durP2;ratioP2
76761;SDS011;65705;51.032;13.790;2023-03-24T00:00:05;2.63;;;1.48;;
76761;SDS011;65705;51.032;13.790;2023-03-24T00:02:36;3.08;;;1.27;;
76761;SDS011;65705;51.032;13.790;2023-03-24T00:05:06;3.47;;;1.50;;
76761;SDS011;65705;51.032;13.790;2023-03-24T00:07:40;5.40;;;1.50;;
76761;SDS011;65705;51.032;13.790;2023-03-24T00:10:07;3.83;;;1.58;;
76761;SDS011;65705;51.032;13.790;2023-03-24T00:12:36;3.40;;;1.23;;
76761;SDS011;65705;51.032;13.790;2023-03-24T00:15:03;3.70;;;1.83;;
76761;SDS011;65705;51.032;13.790;2023-03-24T00:17:31;4.30;;;1.50;;
76761;SDS011;65705;51.032;13.790;2023-03-24T00:20:01;2.53;;;1.30;;
76761;SDS011;65705;51.032;13.790;2023-03-24T00:22:42;4.55;;;1.58;;
76761;SDS011;65705;51.032;13.790;2023-03-24T00:25:19;3.78;;;1.40;;
76761;SDS011;65705;51.032;13.790;2023-03-24T00:27:52;2.97;;;1.40;;
76761;SDS011;65705;51.032;13.790;2023-03-24T00:30:19;2.83;;;1.30;;
76761;SDS011;65705;51.032;13.790;2023-03-24T00:32:45;3.10;;;1.35;;
76761;SDS011;65705;51.032;13.790;2023-03-24T00:35:13;4.20;;;1.50;;
76761;SDS011;65705;51.032;13.790;2023-03-24T00:37:40;3.88;;;1.67;;
76761;SDS011;65705;51.032;13.790;2023-03-24T00:40:13;3.70;;;1.45;;
76761;SDS011;65705;51.032;13.790;2023-03-24T00:42:42;3.47;;;1.70;;
76761;SDS011;65705;51.032;13.790;2023-03-24T00:45:12;3.75;;;1.52;;
76761;SDS011;65705;51.032;13.790;2023-03-24T00:47:40;9.32;;;1.83;;
76761;SDS011;65705;51.032;13.790;2023-03-24T00:50:12;3.80;;;1.40;;
76761;SDS011;65705;51.032;13.790;2023-03-24T00:52:41;3.60;;;1.52;;
76761;SDS011;65705;51.032;13.790;2023-03-24T00:55:12;4.18;;;1.40;;
76761;SDS011;65705;51.032;13.790;2023-03-24T00:57:40;3.75;;;1.55;;
76761;SDS011;65705;51.032;13.790;2023-03-24T01:00:22;4.45;;;1.60;;
76761;SDS011;65705;51.032;13.790;2023-03-24T01:02:52;5.05;;;1.63;;
76761;SDS011;65705;51.032;13.790;2023-03-24T01:05:20;5.43;;;1.60;;
76761;SDS011;65705;51.032;13.790;2023-03-24T01:07:48;3.88;;;1.70;;
76761;SDS011;65705;51.032;13.790;2023-03-24T01:10:17;3.35;;;1.60;;
76761;SDS011;65705;51.032;13.790;2023-03-24T01:12:46;4.70;;;1.73;;
76761;SDS011;65705;51.032;13.790;2023-03-24T01:15:14;3.40;;;1.48;;
76761;SDS011;65705;51.032;13.790;2023-03-24T01:17:43;4.85;;;1.85;;
76761;SDS011;65705;51.032;13.790;2023-03-24T01:20:11;4.53;;;1.75;;
76761;SDS011;65705;51.032;13.790;2023-03-24T01:22:38;3.03;;;1.30;;
76761;SDS011;65705;51.032;13.790;2023-03-24T01:25:06;3.35;;;1.90;;
76761;SDS011;65705;51.032;13.790;2023-03-24T01:27:34;5.78;;;2.13;;
76761;SDS011;65705;51.032;13.790;2023-03-24T01:30:03;4.20;;;1.83;;
76761;SDS011;65705;51.032;13.790;2023-03-24T01:32:30;4.85;;;1.83;;
76761;SDS011;65705;51.032;13.790;2023-03-24T01:34:56;4.60;;;1.60;;
76761;SDS011;65705;51.032;13.790;2023-03-24T01:37:21;5.55;;;2.00;;
76761;SDS011;65705;51.032;13.790;2023-03-24T01:39:48;4.90;;;1.90;;
76761;SDS011;65705;51.032;13.790;2023-03-24T01:42:19;5.10;;;2.08;;
76761;SDS011;65705;51.032;13.790;2023-03-24T01:44:48;4.32;;;1.80;;
76761;SDS011;65705;51.032;13.790;2023-03-24T01:47:15;6.05;;;2.03;;
76761;SDS011;65705;51.032;13.790;2023-03-24T01:52:21;3.65;;;1.73;;
76761;SDS011;65705;51.032;13.790;2023-03-24T01:54:51;4.55;;;2.10;;
76761;SDS011;65705;51.032;13.790;2023-03-24T01:59:56;7.20;;;2.33;;
76761;SDS011;65705;51.032;13.790;2023-03-24T02:02:57;5.57;;;2.17;;
76761;SDS011;65705;51.032;13.790;2023-03-24T02:05:31;4.82;;;2.00;;
76761;SDS011;65705;51.032;13.790;2023-03-24T02:10:25;4.22;;;1.90;;
76761;SDS011;65705;51.032;13.790;2023-03-24T02:12:55;4.38;;;2.00;;
76761;SDS011;65705;51.032;13.790;2023-03-24T02:15:21;6.20;;;2.17;;
76761;SDS011;65705;51.032;13.790;2023-03-24T02:38:14;6.38;;;1.90;;
76761;SDS011;65705;51.032;13.790;2023-03-24T02:46:50;7.20;;;1.90;;
76761;SDS011;65705;51.032;13.790;2023-03-24T02:49:45;6.15;;;2.03;;
76761;SDS011;65705;51.032;13.790;2023-03-24T02:52:19;6.13;;;1.98;;
76761;SDS011;65705;51.032;13.790;2023-03-24T03:00:53;3.70;;;1.90;;
76761;SDS011;65705;51.032;13.790;2023-03-24T03:03:53;7.18;;;3.42;;
76761;SDS011;65705;51.032;13.790;2023-03-24T03:06:28;7.15;;;3.30;;
76761;SDS011;65705;51.032;13.790;2023-03-24T03:09:00;5.97;;;2.72;;
76761;SDS011;65705;51.032;13.790;2023-03-24T03:11:32;4.78;;;2.20;;
76761;SDS011;65705;51.032;13.790;2023-03-24T03:13:59;5.10;;;2.15;;
76761;SDS011;65705;51.032;13.790;2023-03-24T03:19:16;6.22;;;2.33;;
76761;SDS011;65705;51.032;13.790;2023-03-24T03:21:44;4.38;;;2.42;;
76761;SDS011;65705;51.032;13.790;2023-03-24T03:24:23;3.67;;;1.75;;
76761;SDS011;65705;51.032;13.790;2023-03-24T03:26:56;14.32;;;7.63;;
76761;SDS011;65705;51.032;13.790;2023-03-24T03:29:28;15.77;;;7.63;;
76761;SDS011;65705;51.032;13.790;2023-03-24T03:32:00;6.60;;;2.65;;
76761;SDS011;65705;51.032;13.790;2023-03-24T03:37:31;7.88;;;2.05;;
76761;SDS011;65705;51.032;13.790;2023-03-24T03:40:18;5.75;;;2.30;;
76761;SDS011;65705;51.032;13.790;2023-03-24T03:42:55;5.03;;;2.15;;
76761;SDS011;65705;51.032;13.790;2023-03-24T03:45:21;5.30;;;1.98;;
76761;SDS011;65705;51.032;13.790;2023-03-24T03:47:47;3.70;;;1.83;;
76761;SDS011;65705;51.032;13.790;2023-03-24T03:50:13;6.95;;;2.00;;
76761;SDS011;65705;51.032;13.790;2023-03-24T03:52:39;3.42;;;1.88;;
76761;SDS011;65705;51.032;13.790;2023-03-24T03:55:06;4.30;;;2.05;;
76761;SDS011;65705;51.032;13.790;2023-03-24T03:57:33;4.90;;;2.15;;
76761;SDS011;65705;51.032;13.790;2023-03-24T04:00:17;5.15;;;2.22;;
76761;SDS011;65705;51.032;13.790;2023-03-24T04:06:04;4.80;;;2.00;;
76761;SDS011;65705;51.032;13.790;2023-03-24T04:23:03;4.22;;;2.17;;
76761;SDS011;65705;51.032;13.790;2023-03-24T04:31:17;4.38;;;2.15;;
76761;SDS011;65705;51.032;13.790;2023-03-24T04:33:55;3.67;;;1.83;;
76761;SDS011;65705;51.032;13.790;2023-03-24T04:36:32;5.25;;;2.30;;
76761;SDS011;65705;51.032;13.790;2023-03-24T04:39:25;5.60;;;2.42;;
76761;SDS011;65705;51.032;13.790;2023-03-24T04:41:56;7.18;;;2.13;;
76761;SDS011;65705;51.032;13.790;2023-03-24T04:44:26;5.95;;;2.00;;
76761;SDS011;65705;51.032;13.790;2023-03-24T04:47:21;6.38;;;2.15;;
76761;SDS011;65705;51.032;13.790;2023-03-24T04:50:25;6.97;;;2.28;;
76761;SDS011;65705;51.032;13.790;2023-03-24T04:52:56;7.90;;;2.70;;
76761;SDS011;65705;51.032;13.790;2023-03-24T04:58:14;4.55;;;2.28;;
76761;SDS011;65705;51.032;13.790;2023-03-24T05:00:44;4.13;;;1.90;;
76761;SDS011;65705;51.032;13.790;2023-03-24T05:03:13;4.50;;;2.25;;
76761;SDS011;65705;51.032;13.790;2023-03-24T05:05:40;5.35;;;1.98;;
76761;SDS011;65705;51.032;13.790;2023-03-24T05:08:07;8.90;;;2.30;;
76761;SDS011;65705;51.032;13.790;2023-03-24T05:10:33;4.60;;;2.05;;
76761;SDS011;65705;51.032;13.790;2023-03-24T05:13:00;3.97;;;2.13;;
76761;SDS011;65705;51.032;13.790;2023-03-24T05:15:46;6.35;;;2.05;;
76761;SDS011;65705;51.032;13.790;2023-03-24T05:18:41;4.15;;;1.70;;
76761;SDS011;65705;51.032;13.790;2023-03-24T05:21:07;6.03;;;2.25;;
76761;SDS011;65705;51.032;13.790;2023-03-24T05:23:34;4.70;;;2.15;;
76761;SDS011;65705;51.032;13.790;2023-03-24T05:26:00;4.82;;;1.73;;
76761;SDS011;65705;51.032;13.790;2023-03-24T05:28:29;4.80;;;2.50;;
76761;SDS011;65705;51.032;13.790;2023-03-24T05:30:56;6.05;;;2.50;;
76761;SDS011;65705;51.032;13.790;2023-03-24T05:33:42;6.75;;;2.20;;
76761;SDS011;65705;51.032;13.790;2023-03-24T05:36:12;6.28;;;2.83;;
76761;SDS011;65705;51.032;13.790;2023-03-24T05:38:39;6.53;;;3.30;;
76761;SDS011;65705;51.032;13.790;2023-03-24T05:41:05;6.50;;;2.90;;
76761;SDS011;65705;51.032;13.790;2023-03-24T05:43:35;6.57;;;2.55;;
76761;SDS011;65705;51.032;13.790;2023-03-24T05:46:12;4.82;;;2.58;;
76761;SDS011;65705;51.032;13.790;2023-03-24T05:48:39;8.43;;;2.88;;
76761;SDS011;65705;51.032;13.790;2023-03-24T05:53:41;5.72;;;2.72;;
76761;SDS011;65705;51.032;13.790;2023-03-24T05:56:18;4.45;;;2.53;;
76761;SDS011;65705;51.032;13.790;2023-03-24T05:59:11;9.23;;;3.15;;
76761;SDS011;65705;51.032;13.790;2023-03-24T06:01:55;6.82;;;3.20;;
76761;SDS011;65705;51.032;13.790;2023-03-24T06:04:38;8.10;;;3.00;;
76761;SDS011;65705;51.032;13.790;2023-03-24T06:07:14;8.23;;;2.97;;
76761;SDS011;65705;51.032;13.790;2023-03-24T06:09:42;7.07;;;2.80;;
76761;SDS011;65705;51.032;13.790;2023-03-24T06:12:12;6.53;;;2.83;;
76761;SDS011;65705;51.032;13.790;2023-03-24T06:14:46;6.72;;;3.03;;
76761;SDS011;65705;51.032;13.790;2023-03-24T06:17:12;9.18;;;3.78;;
76761;SDS011;65705;51.032;13.790;2023-03-24T06:19:40;8.20;;;3.38;;
76761;SDS011;65705;51.032;13.790;2023-03-24T06:22:23;7.95;;;3.17;;
76761;SDS011;65705;51.032;13.790;2023-03-24T06:24:49;7.55;;;3.03;;
76761;SDS011;65705;51.032;13.790;2023-03-24T06:27:17;7.90;;;2.75;;
76761;SDS011;65705;51.032;13.790;2023-03-24T06:29:46;7.18;;;3.40;;
76761;SDS011;65705;51.032;13.790;2023-03-24T06:32:13;8.23;;;3.20;;
76761;SDS011;65705;51.032;13.790;2023-03-24T06:34:41;7.20;;;2.88;;
76761;SDS011;65705;51.032;13.790;2023-03-24T06:37:42;8.40;;;2.90;;
76761;SDS011;65705;51.032;13.790;2023-03-24T06:40:12;6.30;;;2.90;;
76761;SDS011;65705;51.032;13.790;2023-03-24T06:42:45;7.03;;;2.88;;
76761;SDS011;65705;51.032;13.790;2023-03-24T06:45:11;7.88;;;2.92;;
76761;SDS011;65705;51.032;13.790;2023-03-24T06:47:37;6.35;;;2.65;;
76761;SDS011;65705;51.032;13.790;2023-03-24T06:50:04;7.95;;;3.10;;
76761;SDS011;65705;51.032;13.790;2023-03-24T06:52:32;4.05;;;2.33;;
76761;SDS011;65705;51.032;13.790;2023-03-24T06:54:58;5.65;;;2.72;;
76761;SDS011;65705;51.032;13.790;2023-03-24T06:57:26;7.60;;;2.65;;
76761;SDS011;65705;51.032;13.790;2023-03-24T07:00:22;4.95;;;2.13;;
76761;SDS011;65705;51.032;13.790;2023-03-24T07:03:00;4.97;;;2.55;;
76761;SDS011;65705;51.032;13.790;2023-03-24T07:05:27;10.05;;;2.97;;
76761;SDS011;65705;51.032;13.790;2023-03-24T07:07:53;4.43;;;2.17;;
76761;SDS011;65705;51.032;13.790;2023-03-24T07:10:35;5.40;;;2.30;;
76761;SDS011;65705;51.032;13.790;2023-03-24T07:13:01;8.35;;;2.72;;
76761;SDS011;65705;51.032;13.790;2023-03-24T07:15:28;7.10;;;2.40;;
76761;SDS011;65705;51.032;13.790;2023-03-24T07:17:55;4.60;;;2.08;;
76761;SDS011;65705;51.032;13.790;2023-03-24T07:20:53;4.35;;;2.10;;
76761;SDS011;65705;51.032;13.790;2023-03-24T07:23:20;6.40;;;2.17;;
76761;SDS011;65705;51.032;13.790;2023-03-24T07:25:50;5.78;;;2.10;;
76761;SDS011;65705;51.032;13.790;2023-03-24T07:28:39;5.55;;;1.98;;
76761;SDS011;65705;51.032;13.790;2023-03-24T07:31:05;5.28;;;2.33;;
76761;SDS011;65705;51.032;13.790;2023-03-24T07:33:35;4.68;;;2.35;;
76761;SDS011;65705;51.032;13.790;2023-03-24T07:36:02;6.57;;;2.25;;
76761;SDS011;65705;51.032;13.790;2023-03-24T07:38:29;3.92;;;1.95;;
76761;SDS011;65705;51.032;13.790;2023-03-24T07:41:01;6.35;;;1.88;;
76761;SDS011;65705;51.032;13.790;2023-03-24T07:43:29;4.25;;;2.33;;
76761;SDS011;65705;51.032;13.790;2023-03-24T07:46:14;3.65;;;1.80;;
76761;SDS011;65705;51.032;13.790;2023-03-24T07:48:41;6.93;;;2.28;;
76761;SDS011;65705;51.032;13.790;2023-03-24T07:51:07;7.80;;;1.90;;
76761;SDS011;65705;51.032;13.790;2023-03-24T07:54:05;4.82;;;1.83;;
76761;SDS011;65705;51.032;13.790;2023-03-24T07:56:35;4.53;;;2.20;;
76761;SDS011;65705;51.032;13.790;2023-03-24T07:59:01;5.32;;;2.25;;
76761;SDS011;65705;51.032;13.790;2023-03-24T08:01:45;5.72;;;1.90;;
76761;SDS011;65705;51.032;13.790;2023-03-24T08:04:11;15.73;;;2.30;;
76761;SDS011;65705;51.032;13.790;2023-03-24T08:07:03;4.95;;;1.90;;
76761;SDS011;65705;51.032;13.790;2023-03-24T08:09:29;3.63;;;1.65;;
76761;SDS011;65705;51.032;13.790;2023-03-24T08:11:55;3.72;;;1.73;;
76761;SDS011;65705;51.032;13.790;2023-03-24T08:14:21;4.32;;;1.55;;
76761;SDS011;65705;51.032;13.790;2023-03-24T08:16:46;6.72;;;1.73;;
76761;SDS011;65705;51.032;13.790;2023-03-24T08:19:12;2.72;;;1.40;;
76761;SDS011;65705;51.032;13.790;2023-03-24T08:21:38;3.40;;;1.50;;
76761;SDS011;65705;51.032;13.790;2023-03-24T08:24:03;15.52;;;2.60;;
76761;SDS011;65705;51.032;13.790;2023-03-24T08:26:31;3.35;;;1.55;;
76761;SDS011;65705;51.032;13.790;2023-03-24T08:28:59;4.15;;;2.00;;
76761;SDS011;65705;51.032;13.790;2023-03-24T08:31:32;7.00;;;1.90;;
76761;SDS011;65705;51.032;13.790;2023-03-24T08:33:58;5.40;;;1.63;;
76761;SDS011;65705;51.032;13.790;2023-03-24T08:36:24;6.30;;;2.55;;
76761;SDS011;65705;51.032;13.790;2023-03-24T08:38:53;3.85;;;1.40;;
76761;SDS011;65705;51.032;13.790;2023-03-24T08:41:21;5.20;;;1.50;;
76761;SDS011;65705;51.032;13.790;2023-03-24T08:43:59;5.03;;;1.45;;
76761;SDS011;65705;51.032;13.790;2023-03-24T08:46:28;3.60;;;1.58;;
76761;SDS011;65705;51.032;13.790;2023-03-24T08:48:55;3.75;;;1.50;;
76761;SDS011;65705;51.032;13.790;2023-03-24T08:51:22;5.50;;;1.90;;
76761;SDS011;65705;51.032;13.790;2023-03-24T08:53:47;5.45;;;1.50;;
76761;SDS011;65705;51.032;13.790;2023-03-24T08:56:15;3.42;;;1.60;;
76761;SDS011;65705;51.032;13.790;2023-03-24T08:58:44;3.97;;;1.63;;
76761;SDS011;65705;51.032;13.790;2023-03-24T09:01:16;3.92;;;1.70;;
76761;SDS011;65705;51.032;13.790;2023-03-24T09:03:42;7.13;;;1.90;;
76761;SDS011;65705;51.032;13.790;2023-03-24T09:06:12;4.45;;;1.83;;
76761;SDS011;65705;51.032;13.790;2023-03-24T09:08:40;5.15;;;1.70;;
76761;SDS011;65705;51.032;13.790;2023-03-24T09:11:06;4.82;;;1.75;;
76761;SDS011;65705;51.032;13.790;2023-03-24T09:13:39;3.60;;;1.45;;
76761;SDS011;65705;51.032;13.790;2023-03-24T09:16:04;2.80;;;1.42;;
76761;SDS011;65705;51.032;13.790;2023-03-24T09:18:31;6.32;;;2.22;;
76761;SDS011;65705;51.032;13.790;2023-03-24T09:20:57;4.65;;;2.20;;
76761;SDS011;65705;51.032;13.790;2023-03-24T09:23:23;5.30;;;3.03;;
76761;SDS011;65705;51.032;13.790;2023-03-24T09:25:50;4.32;;;2.28;;
76761;SDS011;65705;51.032;13.790;2023-03-24T09:28:18;3.55;;;1.55;;
76761;SDS011;65705;51.032;13.790;2023-03-24T09:30:45;4.63;;;1.42;;
76761;SDS011;65705;51.032;13.790;2023-03-24T09:33:11;3.03;;;1.38;;
76761;SDS011;65705;51.032;13.790;2023-03-24T09:35:37;3.03;;;1.30;;
76761;SDS011;65705;51.032;13.790;2023-03-24T09:38:03;3.92;;;1.67;;
76761;SDS011;65705;51.032;13.790;2023-03-24T09:40:31;3.75;;;1.58;;
76761;SDS011;65705;51.032;13.790;2023-03-24T09:45:54;4.80;;;1.88;;
76761;SDS011;65705;51.032;13.790;2023-03-24T09:50:58;4.43;;;1.60;;
76761;SDS011;65705;51.032;13.790;2023-03-24T09:56:38;3.65;;;1.40;;
76761;SDS011;65705;51.032;13.790;2023-03-24T09:59:13;3.83;;;1.45;;
76761;SDS011;65705;51.032;13.790;2023-03-24T10:01:43;4.28;;;2.28;;
76761;SDS011;65705;51.032;13.790;2023-03-24T10:04:12;4.75;;;2.03;;
76761;SDS011;65705;51.032;13.790;2023-03-24T10:06:41;5.15;;;1.95;;
76761;SDS011;65705;51.032;13.790;2023-03-24T10:09:27;3.83;;;2.03;;
76761;SDS011;65705;51.032;13.790;2023-03-24T10:17:42;4.43;;;1.25;;
76761;SDS011;65705;51.032;13.790;2023-03-24T10:25:30;2.58;;;1.02;;
76761;SDS011;65705;51.032;13.790;2023-03-24T10:28:19;2.83;;;1.05;;
76761;SDS011;65705;51.032;13.790;2023-03-24T10:30:48;4.05;;;0.90;;
76761;SDS011;65705;51.032;13.790;2023-03-24T10:33:15;1.40;;;0.70;;
76761;SDS011;65705;51.032;13.790;2023-03-24T10:35:49;2.58;;;0.93;;
76761;SDS011;65705;51.032;13.790;2023-03-24T10:38:21;2.70;;;0.65;;
76761;SDS011;65705;51.032;13.790;2023-03-24T10:40:47;7.20;;;1.20;;
76761;SDS011;65705;51.032;13.790;2023-03-24T10:43:14;2.40;;;0.52;;
76761;SDS011;65705;51.032;13.790;2023-03-24T10:45:46;1.77;;;0.60;;
76761;SDS011;65705;51.032;13.790;2023-03-24T10:48:32;2.65;;;1.40;;
76761;SDS011;65705;51.032;13.790;2023-03-24T10:53:24;1.73;;;0.70;;
76761;SDS011;65705;51.032;13.790;2023-03-24T10:55:50;2.10;;;0.50;;
76761;SDS011;65705;51.032;13.790;2023-03-24T10:58:20;1.80;;;0.73;;
76761;SDS011;65705;51.032;13.790;2023-03-24T11:00:50;0.70;;;0.50;;
76761;SDS011;65705;51.032;13.790;2023-03-24T11:03:18;3.60;;;0.60;;
76761;SDS011;65705;51.032;13.790;2023-03-24T11:05:56;3.70;;;1.52;;
76761;SDS011;65705;51.032;13.790;2023-03-24T11:08:31;3.65;;;1.80;;
76761;SDS011;65705;51.032;13.790;2023-03-24T11:10:57;1.15;;;0.70;;
76761;SDS011;65705;51.032;13.790;2023-03-24T11:13:32;0.70;;;0.50;;
76761;SDS011;65705;51.032;13.790;2023-03-24T11:18:36;1.23;;;0.50;;
76761;SDS011;65705;51.032;13.790;2023-03-24T11:21:03;2.55;;;0.52;;
76761;SDS011;65705;51.032;13.790;2023-03-24T11:23:38;0.85;;;0.45;;
76761;SDS011;65705;51.032;13.790;2023-03-24T11:26:20;1.98;;;0.52;;
76761;SDS011;65705;51.032;13.790;2023-03-24T11:28:54;3.75;;;0.70;;
76761;SDS011;65705;51.032;13.790;2023-03-24T11:31:26;0.68;;;0.43;;
76761;SDS011;65705;51.032;13.790;2023-03-24T11:36:53;0.47;;;0.32;;
76761;SDS011;65705;51.032;13.790;2023-03-24T11:39:22;1.25;;;0.60;;
76761;SDS011;65705;51.032;13.790;2023-03-24T11:44:16;0.60;;;0.47;;
76761;SDS011;65705;51.032;13.790;2023-03-24T11:46:49;1.23;;;0.57;;
76761;SDS011;65705;51.032;13.790;2023-03-24T11:49:37;3.17;;;0.93;;
76761;SDS011;65705;51.032;13.790;2023-03-24T11:52:21;2.00;;;0.80;;
76761;SDS011;65705;51.032;13.790;2023-03-24T11:54:52;1.90;;;0.60;;
76761;SDS011;65705;51.032;13.790;2023-03-24T11:57:38;4.78;;;0.68;;
76761;SDS011;65705;51.032;13.790;2023-03-24T12:06:13;3.60;;;0.65;;
76761;SDS011;65705;51.032;13.790;2023-03-24T12:17:39;0.47;;;0.43;;
76761;SDS011;65705;51.032;13.790;2023-03-24T12:22:49;1.00;;;0.43;;
76761;SDS011;65705;51.032;13.790;2023-03-24T12:25:59;0.68;;;0.50;;
76761;SDS011;65705;51.032;13.790;2023-03-24T12:37:01;0.70;;;0.47;;
76761;SDS011;65705;51.032;13.790;2023-03-24T12:39:30;1.45;;;0.80;;
76761;SDS011;65705;51.032;13.790;2023-03-24T12:44:42;3.15;;;1.20;;
76761;SDS011;65705;51.032;13.790;2023-03-24T12:55:44;1.15;;;0.70;;
76761;SDS011;65705;51.032;13.790;2023-03-24T13:03:46;0.30;;;0.30;;
76761;SDS011;65705;51.032;13.790;2023-03-24T13:06:25;1.63;;;0.65;;
76761;SDS011;65705;51.032;13.790;2023-03-24T13:11:30;2.42;;;0.70;;
76761;SDS011;65705;51.032;13.790;2023-03-24T13:14:03;1.20;;;0.75;;
76761;SDS011;65705;51.032;13.790;2023-03-24T13:16:36;0.80;;;0.50;;
76761;SDS011;65705;51.032;13.790;2023-03-24T13:19:03;0.93;;;0.60;;
76761;SDS011;65705;51.032;13.790;2023-03-24T13:21:42;3.83;;;0.82;;
76761;SDS011;65705;51.032;13.790;2023-03-24T13:24:11;1.00;;;0.55;;
76761;SDS011;65705;51.032;13.790;2023-03-24T13:30:06;3.60;;;1.75;;
76761;SDS011;65705;51.032;13.790;2023-03-24T13:32:51;3.88;;;1.90;;
76761;SDS011;65705;51.032;13.790;2023-03-24T13:40:42;2.17;;;0.70;;
76761;SDS011;65705;51.032;13.790;2023-03-24T13:43:12;1.60;;;0.80;;
76761;SDS011;65705;51.032;13.790;2023-03-24T13:45:44;2.05;;;0.68;;
76761;SDS011;65705;51.032;13.790;2023-03-24T13:48:49;1.10;;;0.60;;
76761;SDS011;65705;51.032;13.790;2023-03-24T13:51:23;1.40;;;0.50;;
76761;SDS011;65705;51.032;13.790;2023-03-24T13:54:05;1.20;;;0.60;;
76761;SDS011;65705;51.032;13.790;2023-03-24T13:56:38;3.03;;;0.70;;
76761;SDS011;65705;51.032;13.790;2023-03-24T14:02:08;1.88;;;0.80;;
76761;SDS011;65705;51.032;13.790;2023-03-24T14:10:10;2.70;;;0.70;;
76761;SDS011;65705;51.032;13.790;2023-03-24T14:15:34;6.35;;;0.98;;
76761;SDS011;65705;51.032;13.790;2023-03-24T14:18:37;4.35;;;0.90;;
76761;SDS011;65705;51.032;13.790;2023-03-24T14:20:59;2.25;;;0.60;;
76761;SDS011;65705;51.032;13.790;2023-03-24T14:26:32;2.40;;;0.70;;
76761;SDS011;65705;51.032;13.790;2023-03-24T14:28:58;3.35;;;0.60;;
76761;SDS011;65705;51.032;13.790;2023-03-24T14:39:06;4.28;;;0.73;;
76761;SDS011;65705;51.032;13.790;2023-03-24T14:41:37;7.00;;;1.52;;
76761;SDS011;65705;51.032;13.790;2023-03-24T14:44:06;3.10;;;0.85;;
76761;SDS011;65705;51.032;13.790;2023-03-24T14:49:01;3.33;;;0.60;;
76761;SDS011;65705;51.032;13.790;2023-03-24T14:54:05;1.75;;;0.70;;
76761;SDS011;65705;51.032;13.790;2023-03-24T14:56:38;2.63;;;0.50;;
76761;SDS011;65705;51.032;13.790;2023-03-24T14:59:17;1.02;;;0.45;;
76761;SDS011;65705;51.032;13.790;2023-03-24T15:01:53;3.95;;;0.80;;
76761;SDS011;65705;51.032;13.790;2023-03-24T15:04:25;5.10;;;1.75;;
76761;SDS011;65705;51.032;13.790;2023-03-24T15:06:52;5.22;;;2.00;;
76761;SDS011;65705;51.032;13.790;2023-03-24T15:09:17;1.73;;;0.80;;
76761;SDS011;65705;51.032;13.790;2023-03-24T15:11:43;2.85;;;0.90;;
76761;SDS011;65705;51.032;13.790;2023-03-24T15:14:19;3.10;;;0.70;;
76761;SDS011;65705;51.032;13.790;2023-03-24T15:16:54;2.70;;;0.85;;
76761;SDS011;65705;51.032;13.790;2023-03-24T15:19:28;2.50;;;0.88;;
76761;SDS011;65705;51.032;13.790;2023-03-24T15:22:03;2.22;;;0.60;;
76761;SDS011;65705;51.032;13.790;2023-03-24T15:24:35;2.22;;;0.90;;
76761;SDS011;65705;51.032;13.790;2023-03-24T15:29:34;4.90;;;1.67;;
76761;SDS011;65705;51.032;13.790;2023-03-24T15:32:05;2.60;;;1.00;;
76761;SDS011;65705;51.032;13.790;2023-03-24T15:34:41;6.20;;;0.90;;
76761;SDS011;65705;51.032;13.790;2023-03-24T15:37:18;4.50;;;1.00;;
76761;SDS011;65705;51.032;13.790;2023-03-24T15:39:50;3.92;;;1.10;;
76761;SDS011;65705;51.032;13.790;2023-03-24T15:42:19;5.07;;;2.30;;
76761;SDS011;65705;51.032;13.790;2023-03-24T15:44:47;8.40;;;1.77;;
76761;SDS011;65705;51.032;13.790;2023-03-24T15:49:44;2.78;;;0.80;;
76761;SDS011;65705;51.032;13.790;2023-03-24T15:52:34;3.13;;;1.20;;
76761;SDS011;65705;51.032;13.790;2023-03-24T15:55:06;4.97;;;1.10;;
76761;SDS011;65705;51.032;13.790;2023-03-24T15:57:57;6.35;;;2.70;;
76761;SDS011;65705;51.032;13.790;2023-03-24T16:00:38;10.38;;;4.07;;
76761;SDS011;65705;51.032;13.790;2023-03-24T16:03:06;3.70;;;1.40;;
76761;SDS011;65705;51.032;13.790;2023-03-24T16:05:34;2.88;;;0.93;;
76761;SDS011;65705;51.032;13.790;2023-03-24T16:08:06;2.42;;;1.00;;
76761;SDS011;65705;51.032;13.790;2023-03-24T16:10:59;3.13;;;1.02;;
76761;SDS011;65705;51.032;13.790;2023-03-24T16:13:32;1.92;;;0.90;;
76761;SDS011;65705;51.032;13.790;2023-03-24T16:18:40;1.70;;;0.70;;
76761;SDS011;65705;51.032;13.790;2023-03-24T16:21:18;2.45;;;1.10;;
76761;SDS011;65705;51.032;13.790;2023-03-24T16:23:49;2.60;;;1.05;;
76761;SDS011;65705;51.032;13.790;2023-03-24T16:28:42;2.67;;;1.10;;
76761;SDS011;65705;51.032;13.790;2023-03-24T16:31:24;2.55;;;0.98;;
76761;SDS011;65705;51.032;13.790;2023-03-24T16:33:52;3.55;;;1.17;;
76761;SDS011;65705;51.032;13.790;2023-03-24T16:36:19;4.38;;;1.38;;
76761;SDS011;65705;51.032;13.790;2023-03-24T16:38:46;2.28;;;1.00;;
76761;SDS011;65705;51.032;13.790;2023-03-24T16:41:14;3.03;;;1.25;;
76761;SDS011;65705;51.032;13.790;2023-03-24T16:43:40;3.13;;;0.90;;
76761;SDS011;65705;51.032;13.790;2023-03-24T16:46:17;2.55;;;0.82;;
76761;SDS011;65705;51.032;13.790;2023-03-24T16:48:54;2.13;;;0.75;;
76761;SDS011;65705;51.032;13.790;2023-03-24T16:51:19;8.02;;;4.35;;
76761;SDS011;65705;51.032;13.790;2023-03-24T16:53:46;10.07;;;4.40;;
76761;SDS011;65705;51.032;13.790;2023-03-24T16:56:12;8.52;;;3.75;;
76761;SDS011;65705;51.032;13.790;2023-03-24T16:58:40;5.10;;;2.00;;
76761;SDS011;65705;51.032;13.790;2023-03-24T17:01:16;3.03;;;1.25;;
76761;SDS011;65705;51.032;13.790;2023-03-24T17:03:57;4.00;;;1.60;;
76761;SDS011;65705;51.032;13.790;2023-03-24T17:06:26;4.05;;;1.30;;
76761;SDS011;65705;51.032;13.790;2023-03-24T17:08:53;2.50;;;1.27;;
76761;SDS011;65705;51.032;13.790;2023-03-24T17:11:23;2.03;;;1.02;;
76761;SDS011;65705;51.032;13.790;2023-03-24T17:13:51;4.80;;;1.02;;
76761;SDS011;65705;51.032;13.790;2023-03-24T17:16:18;3.05;;;1.05;;
76761;SDS011;65705;51.032;13.790;2023-03-24T17:18:44;2.20;;;1.08;;
76761;SDS011;65705;51.032;13.790;2023-03-24T17:21:14;4.13;;;1.33;;
76761;SDS011;65705;51.032;13.790;2023-03-24T17:23:42;2.70;;;1.30;;
76761;SDS011;65705;51.032;13.790;2023-03-24T17:26:11;4.05;;;1.30;;
76761;SDS011;65705;51.032;13.790;2023-03-24T17:28:37;3.03;;;1.15;;
76761;SDS011;65705;51.032;13.790;2023-03-24T17:31:03;3.30;;;1.60;;
76761;SDS011;65705;51.032;13.790;2023-03-24T17:33:29;9.48;;;4.43;;
76761;SDS011;65705;51.032;13.790;2023-03-24T17:35:55;7.72;;;3.50;;
76761;SDS011;65705;51.032;13.790;2023-03-24T17:38:21;3.05;;;1.10;;
76761;SDS011;65705;51.032;13.790;2023-03-24T17:40:47;4.40;;;1.17;;
76761;SDS011;65705;51.032;13.790;2023-03-24T17:43:13;2.65;;;0.90;;
76761;SDS011;65705;51.032;13.790;2023-03-24T17:45:39;4.40;;;1.10;;
76761;SDS011;65705;51.032;13.790;2023-03-24T17:48:05;4.10;;;1.80;;
76761;SDS011;65705;51.032;13.790;2023-03-24T17:50:31;3.33;;;1.50;;
76761;SDS011;65705;51.032;13.790;2023-03-24T17:52:57;4.18;;;1.15;;
76761;SDS011;65705;51.032;13.790;2023-03-24T17:55:25;2.63;;;1.02;;
76761;SDS011;65705;51.032;13.790;2023-03-24T17:57:51;2.92;;;0.82;;
76761;SDS011;65705;51.032;13.790;2023-03-24T18:00:16;3.55;;;1.00;;
76761;SDS011;65705;51.032;13.790;2023-03-24T18:02:42;1.92;;;0.93;;
76761;SDS011;65705;51.032;13.790;2023-03-24T18:05:09;4.75;;;1.05;;
76761;SDS011;65705;51.032;13.790;2023-03-24T18:07:37;11.18;;;5.45;;
76761;SDS011;65705;51.032;13.790;2023-03-24T18:10:04;4.20;;;1.80;;
76761;SDS011;65705;51.032;13.790;2023-03-24T18:12:30;2.72;;;0.90;;
76761;SDS011;65705;51.032;13.790;2023-03-24T18:14:56;2.63;;;1.02;;